createdAt,value
2023-02-23T00:01:45.008Z,11.10
2023-02-23T00:04:32.741Z,11.00
2023-02-23T00:07:23.052Z,11.00
2023-02-23T00:10:12.059Z,10.90
2023-02-23T00:13:00.465Z,10.90
2023-02-23T00:15:47.856Z,10.90
2023-02-23T00:18:37.007Z,10.80
2023-02-23T00:21:38.497Z,10.80
2023-02-23T00:24:27.001Z,10.80
2023-02-23T00:27:16.183Z,10.80
2023-02-23T00:30:03.485Z,10.70
2023-02-23T00:32:53.557Z,10.70
2023-02-23T00:35:40.644Z,10.70
2023-02-23T00:38:28.065Z,10.80
2023-02-23T00:41:21.147Z,10.80
2023-02-23T00:44:08.822Z,10.80
2023-02-23T00:46:56.111Z,10.70
2023-02-23T00:49:45.987Z,10.60
2023-02-23T00:52:33.494Z,10.50
2023-02-23T00:55:20.827Z,10.50
2023-02-23T00:58:09.668Z,10.60
2023-02-23T01:00:59.171Z,10.60
2023-02-23T01:03:47.110Z,10.60
2023-02-23T01:06:37.067Z,10.50
2023-02-23T01:09:26.223Z,10.50
2023-02-23T01:12:13.263Z,10.60
2023-02-23T01:15:02.387Z,10.70
2023-02-23T01:17:49.871Z,10.70
2023-02-23T01:20:38.373Z,10.80
2023-02-23T01:23:25.803Z,10.80
2023-02-23T01:26:29.037Z,10.90
2023-02-23T01:29:18.567Z,11.00
2023-02-23T01:32:06.201Z,11.20
2023-02-23T01:34:53.498Z,11.30
2023-02-23T01:37:43.245Z,11.40
2023-02-23T01:40:30.759Z,11.40
2023-02-23T01:43:26.099Z,11.50
2023-02-23T01:46:13.197Z,11.60
2023-02-23T01:49:01.556Z,11.70
2023-02-23T01:51:51.868Z,11.70
2023-02-23T01:54:49.652Z,11.60
2023-02-23T01:57:37.695Z,11.70
2023-02-23T02:00:27.182Z,11.70
2023-02-23T02:03:22.226Z,11.60
2023-02-23T02:06:14.143Z,11.60
2023-02-23T02:09:07.904Z,11.60
2023-02-23T02:11:55.384Z,11.60
2023-02-23T02:14:43.272Z,11.60
2023-02-23T02:17:39.675Z,11.70
2023-02-23T02:20:37.905Z,11.60
2023-02-23T02:23:53.042Z,11.50
2023-02-23T02:27:15.458Z,11.50
2023-02-23T02:30:10.814Z,11.60
2023-02-23T02:33:13.877Z,11.50
2023-02-23T02:36:13.316Z,11.50
2023-02-23T02:39:36.973Z,11.50
2023-02-23T02:42:40.779Z,11.50
2023-02-23T02:46:03.501Z,11.40
2023-02-23T02:49:02.488Z,11.40
2023-02-23T02:52:05.753Z,11.50
2023-02-23T02:54:56.581Z,11.40
2023-02-23T02:57:46.726Z,11.30
2023-02-23T03:00:58.168Z,11.40
2023-02-23T03:04:06.087Z,11.50
2023-02-23T03:07:14.628Z,11.30
2023-02-23T03:10:29.340Z,11.30
2023-02-23T03:13:37.857Z,11.40
2023-02-23T03:16:55.476Z,11.40
2023-02-23T03:20:15.744Z,11.40
2023-02-23T03:23:27.056Z,11.40
2023-02-23T03:26:41.011Z,11.20
2023-02-23T03:30:10.565Z,11.10
2023-02-23T03:33:19.327Z,10.90
2023-02-23T03:36:33.994Z,10.80
2023-02-23T03:39:42.231Z,10.80
2023-02-23T03:42:50.723Z,10.80
2023-02-23T03:45:57.129Z,10.80
2023-02-23T03:49:05.205Z,10.80
2023-02-23T03:52:13.575Z,10.80
2023-02-23T03:55:21.460Z,10.90
2023-02-23T03:58:30.001Z,10.80
2023-02-23T04:01:38.168Z,10.90
2023-02-23T04:04:46.447Z,10.80
2023-02-23T04:07:53.273Z,10.70
2023-02-23T04:11:01.624Z,10.70
2023-02-23T04:13:51.927Z,10.80
2023-02-23T04:16:39.676Z,10.80
2023-02-23T04:19:30.105Z,10.80
2023-02-23T04:22:17.422Z,10.90
2023-02-23T04:25:06.133Z,10.90
2023-02-23T04:27:53.730Z,11.00
2023-02-23T04:30:41.898Z,11.00
2023-02-23T04:33:29.475Z,11.10
2023-02-23T04:36:17.373Z,11.00
2023-02-23T04:39:04.923Z,11.00
2023-02-23T04:41:52.467Z,11.00
2023-02-23T04:44:39.868Z,11.00
2023-02-23T04:47:27.086Z,11.00
2023-02-23T04:50:15.016Z,11.00
2023-02-23T04:53:02.491Z,11.10
2023-02-23T04:55:50.016Z,11.10
2023-02-23T04:58:38.949Z,11.10
2023-02-23T05:01:27.241Z,11.00
2023-02-23T05:04:14.327Z,11.00
2023-02-23T05:07:04.833Z,11.00
2023-02-23T05:09:52.143Z,10.90
2023-02-23T05:12:39.517Z,10.90
2023-02-23T05:15:26.762Z,11.00
2023-02-23T05:18:15.561Z,11.00
2023-02-23T05:21:06.984Z,11.10
2023-02-23T05:23:54.161Z,11.20
2023-02-23T05:26:41.428Z,11.10
2023-02-23T05:29:28.899Z,11.10
2023-02-23T05:32:16.537Z,11.00
2023-02-23T05:35:04.771Z,11.00
2023-02-23T05:37:56.592Z,11.00
2023-02-23T05:40:43.794Z,11.00
2023-02-23T05:43:31.493Z,11.00
2023-02-23T05:46:21.786Z,11.10
2023-02-23T05:49:11.134Z,11.10
2023-02-23T05:51:58.332Z,11.10
2023-02-23T05:54:46.771Z,11.10
2023-02-23T05:57:34.195Z,11.10
2023-02-23T06:00:21.995Z,11.20
2023-02-23T06:03:09.315Z,11.20
2023-02-23T06:05:59.049Z,11.10
2023-02-23T06:08:46.536Z,11.20
2023-02-23T06:11:33.784Z,11.20
2023-02-23T06:14:21.422Z,11.20
2023-02-23T06:17:08.917Z,11.30
2023-02-23T06:19:56.030Z,11.30
2023-02-23T06:22:44.936Z,11.30
2023-02-23T06:25:32.920Z,11.30
2023-02-23T06:28:20.229Z,11.40
2023-02-23T06:31:07.780Z,11.40
2023-02-23T06:33:54.917Z,11.40
2023-02-23T06:36:42.382Z,11.40
2023-02-23T06:39:29.786Z,11.50
2023-02-23T06:42:17.852Z,11.50
2023-02-23T06:45:05.902Z,11.50
2023-02-23T06:47:53.623Z,11.50
2023-02-23T06:50:40.932Z,11.60
2023-02-23T06:53:28.922Z,11.70
2023-02-23T06:56:16.337Z,11.70
2023-02-23T06:59:03.646Z,11.70
2023-02-23T07:01:51.769Z,11.60
2023-02-23T07:04:39.292Z,11.70
2023-02-23T07:07:26.490Z,11.70
2023-02-23T07:10:14.153Z,11.70
2023-02-23T07:13:01.434Z,11.60
2023-02-23T07:15:52.025Z,11.70
2023-02-23T07:18:39.483Z,11.70
2023-02-23T07:21:26.982Z,11.70
2023-02-23T07:24:14.659Z,11.70
2023-02-23T07:27:02.377Z,11.80
2023-02-23T07:29:50.033Z,11.80
2023-02-23T07:32:37.676Z,11.80
2023-02-23T07:35:26.619Z,11.90
2023-02-23T07:38:14.454Z,12.00
2023-02-23T07:41:02.472Z,12.00
2023-02-23T07:43:50.153Z,12.10
2023-02-23T07:46:37.446Z,12.00
2023-02-23T07:49:25.419Z,12.00
2023-02-23T07:52:12.586Z,11.90
2023-02-23T07:54:59.898Z,11.80
2023-02-23T07:57:47.493Z,11.90
2023-02-23T08:00:36.835Z,11.90
2023-02-23T08:03:24.486Z,12.00
2023-02-23T08:06:12.036Z,12.00
2023-02-23T08:09:04.258Z,12.10
2023-02-23T08:11:51.646Z,12.00
2023-02-23T08:14:39.183Z,12.00
2023-02-23T08:17:27.533Z,12.00
2023-02-23T08:20:14.753Z,12.00
2023-02-23T08:23:03.964Z,11.90
2023-02-23T08:25:54.456Z,11.90
2023-02-23T08:28:43.675Z,12.00
2023-02-23T08:31:31.135Z,12.00
2023-02-23T08:34:20.319Z,12.00
2023-02-23T08:37:08.249Z,12.20
2023-02-23T08:39:55.880Z,12.10
2023-02-23T08:42:45.144Z,12.10
2023-02-23T08:45:32.665Z,12.10
2023-02-23T08:48:21.960Z,12.20
2023-02-23T08:51:10.024Z,12.30
2023-02-23T08:53:57.520Z,12.30
2023-02-23T08:56:45.831Z,12.30
2023-02-23T08:59:33.201Z,12.30
2023-02-23T09:02:21.043Z,12.40
2023-02-23T09:05:10.617Z,12.40
2023-02-23T09:07:57.602Z,12.50
2023-02-23T09:10:45.071Z,12.60
2023-02-23T09:13:33.299Z,12.60
2023-02-23T09:16:22.150Z,12.50
2023-02-23T09:19:09.667Z,12.50
2023-02-23T09:21:57.199Z,12.50
2023-02-23T09:24:44.693Z,12.50
2023-02-23T09:27:32.169Z,12.50
2023-02-23T09:30:25.028Z,12.50
2023-02-23T09:33:12.774Z,12.50
2023-02-23T09:35:59.963Z,12.60
2023-02-23T09:38:50.185Z,12.60
2023-02-23T09:42:08.347Z,12.50
2023-02-23T09:45:32.476Z,12.60
2023-02-23T09:48:25.333Z,12.80
2023-02-23T09:51:15.633Z,12.90
2023-02-23T09:54:04.392Z,13.00
2023-02-23T09:56:54.280Z,13.20
2023-02-23T09:59:42.521Z,13.30
2023-02-23T10:02:34.605Z,13.50
2023-02-23T10:05:24.589Z,13.50
2023-02-23T10:08:26.567Z,13.40
2023-02-23T10:11:19.761Z,13.30
2023-02-23T10:14:25.803Z,13.30
2023-02-23T10:17:22.364Z,13.10
2023-02-23T10:20:30.520Z,13.00
2023-02-23T10:23:21.166Z,13.10
2023-02-23T10:26:12.530Z,13.00
2023-02-23T10:29:01.257Z,13.20
2023-02-23T10:31:51.801Z,13.30
2023-02-23T10:34:40.627Z,13.30
2023-02-23T10:37:28.387Z,13.70
2023-02-23T10:40:20.317Z,14.10
2023-02-23T10:43:07.809Z,14.30
2023-02-23T10:45:55.969Z,14.60
2023-02-23T10:48:44.364Z,14.80
2023-02-23T10:51:34.926Z,14.60
2023-02-23T10:54:44.588Z,14.60
2023-02-23T10:57:40.024Z,14.50
2023-02-23T11:00:31.275Z,14.50
2023-02-23T11:03:48.287Z,14.60
2023-02-23T11:06:43.199Z,14.70
2023-02-23T11:09:45.576Z,14.90
2023-02-23T11:12:29.602Z,15.10
2023-02-23T11:15:35.268Z,15.50
2023-02-23T11:18:20.798Z,15.60
2023-02-23T11:21:13.834Z,15.50
2023-02-23T11:24:22.887Z,15.40
2023-02-23T11:27:14.667Z,15.20
2023-02-23T11:30:06.094Z,15.20
2023-02-23T11:32:56.748Z,15.20
2023-02-23T11:35:44.301Z,15.20
2023-02-23T11:38:33.172Z,14.90
2023-02-23T11:41:23.352Z,14.80
2023-02-23T11:44:23.740Z,14.50
2023-02-23T11:47:26.298Z,14.50
2023-02-23T11:50:32.699Z,14.50
2023-02-23T11:53:27.532Z,14.60
2023-02-23T11:56:17.662Z,14.60
2023-02-23T11:59:10.795Z,14.70
2023-02-23T12:02:07.084Z,14.80
2023-02-23T12:05:12.558Z,14.90
2023-02-23T12:08:09.037Z,14.80
2023-02-23T12:10:58.942Z,14.40
2023-02-23T12:13:58.600Z,14.30
2023-02-23T12:16:52.199Z,14.20
2023-02-23T12:19:51.684Z,14.10
2023-02-23T12:22:48.372Z,14.00
2023-02-23T12:25:38.776Z,13.80
2023-02-23T12:28:40.542Z,13.70
2023-02-23T12:31:38.827Z,13.80
2023-02-23T12:34:50.485Z,13.90
2023-02-23T12:37:43.990Z,13.80
2023-02-23T12:40:38.048Z,13.80
2023-02-23T12:43:52.628Z,13.80
2023-02-23T12:46:47.748Z,13.80
2023-02-23T12:49:44.101Z,13.90
2023-02-23T12:52:34.477Z,14.10
2023-02-23T12:55:38.877Z,13.90
2023-02-23T12:58:45.334Z,14.00
2023-02-23T13:01:35.644Z,14.00
2023-02-23T13:04:42.844Z,14.10
2023-02-23T13:07:39.404Z,14.10
2023-02-23T13:10:48.952Z,14.20
2023-02-23T13:13:51.787Z,14.20
2023-02-23T13:16:52.146Z,14.20
2023-02-23T13:19:59.119Z,14.30
2023-02-23T13:23:15.089Z,14.20
2023-02-23T13:26:17.504Z,14.30
2023-02-23T13:29:17.147Z,14.40
2023-02-23T13:32:07.859Z,14.60
2023-02-23T13:35:03.413Z,14.70
2023-02-23T13:37:56.875Z,14.80
2023-02-23T13:40:59.372Z,14.70
2023-02-23T13:44:13.611Z,14.70
2023-02-23T13:47:18.856Z,14.60
2023-02-23T13:50:30.228Z,14.60
2023-02-23T13:53:35.767Z,14.70
2023-02-23T13:56:29.638Z,14.90
2023-02-23T13:59:25.852Z,14.90
2023-02-23T14:02:28.711Z,14.70
2023-02-23T14:05:30.023Z,14.50
2023-02-23T14:08:38.813Z,14.50
2023-02-23T14:11:51.369Z,14.50
2023-02-23T14:14:42.798Z,14.30
2023-02-23T14:17:39.362Z,14.20
2023-02-23T14:20:39.124Z,14.20
2023-02-23T14:23:30.015Z,14.30
2023-02-23T14:26:32.990Z,14.20
2023-02-23T14:29:26.961Z,14.40
2023-02-23T14:32:17.992Z,14.50
2023-02-23T14:35:05.662Z,14.50
2023-02-23T14:37:59.063Z,14.50
2023-02-23T14:40:49.667Z,14.50
2023-02-23T14:43:41.913Z,14.60
2023-02-23T14:46:29.486Z,14.90
2023-02-23T14:49:25.745Z,15.00
2023-02-23T14:52:40.756Z,14.90
2023-02-23T14:55:30.402Z,15.00
2023-02-23T14:58:29.536Z,15.00
2023-02-23T15:01:34.169Z,15.00
2023-02-23T15:04:27.677Z,14.90
2023-02-23T15:07:22.730Z,14.70
2023-02-23T15:10:25.122Z,14.70
2023-02-23T15:13:30.365Z,14.50
2023-02-23T15:16:23.016Z,14.40
2023-02-23T15:19:36.199Z,14.10
2023-02-23T15:22:26.392Z,14.00
2023-02-23T15:25:17.068Z,14.00
2023-02-23T15:28:23.589Z,14.20
2023-02-23T15:31:13.806Z,14.30
2023-02-23T15:34:01.252Z,14.50
2023-02-23T15:36:51.748Z,14.40
2023-02-23T15:39:47.971Z,14.30
2023-02-23T15:42:37.964Z,14.30
2023-02-23T15:45:48.107Z,14.40
2023-02-23T15:48:47.509Z,14.50
2023-02-23T15:51:37.868Z,14.50
2023-02-23T15:54:34.209Z,14.60
2023-02-23T15:57:24.726Z,14.60
2023-02-23T16:00:22.821Z,14.50
2023-02-23T16:03:25.493Z,14.50
2023-02-23T16:06:24.823Z,14.50
2023-02-23T16:09:24.466Z,14.40
2023-02-23T16:12:17.436Z,14.40
2023-02-23T16:15:25.872Z,14.50
2023-02-23T16:18:16.500Z,14.50
2023-02-23T16:21:05.173Z,14.50
2023-02-23T16:23:55.181Z,14.50
2023-02-23T16:26:57.257Z,14.40
2023-02-23T16:29:45.089Z,14.30
2023-02-23T16:32:38.762Z,14.20
2023-02-23T16:35:25.963Z,14.10
2023-02-23T16:38:16.178Z,14.10
2023-02-23T16:41:05.356Z,14.00
2023-02-23T16:43:55.227Z,13.90
2023-02-23T16:46:48.425Z,13.80
2023-02-23T16:49:35.846Z,13.80
2023-02-23T16:52:25.629Z,13.90
2023-02-23T16:55:18.592Z,13.90
2023-02-23T16:58:09.248Z,13.90
2023-02-23T17:00:56.958Z,13.90
2023-02-23T17:03:53.318Z,13.80
2023-02-23T17:06:38.231Z,13.80
2023-02-23T17:09:27.584Z,13.80
2023-02-23T17:12:21.889Z,13.70
2023-02-23T17:15:12.754Z,13.70
2023-02-23T17:18:00.134Z,13.70
2023-02-23T17:20:47.912Z,13.70
2023-02-23T17:23:45.007Z,13.70
2023-02-23T17:26:32.119Z,13.60
2023-02-23T17:29:20.958Z,13.60
2023-02-23T17:32:08.404Z,13.50
2023-02-23T17:34:56.424Z,13.40
2023-02-23T17:37:45.658Z,13.30
2023-02-23T17:40:35.144Z,13.20
2023-02-23T17:43:24.113Z,13.20
2023-02-23T17:46:13.346Z,13.30
2023-02-23T17:49:00.569Z,13.40
2023-02-23T17:51:48.112Z,13.40
2023-02-23T17:54:35.742Z,13.40
2023-02-23T17:57:24.237Z,13.40
2023-02-23T18:00:14.143Z,13.40
2023-02-23T18:03:01.754Z,13.40
2023-02-23T18:05:49.138Z,13.40
2023-02-23T18:08:38.063Z,13.40
2023-02-23T18:11:25.762Z,13.30
2023-02-23T18:14:14.225Z,13.10
2023-02-23T18:17:01.679Z,13.10
2023-02-23T18:19:51.089Z,13.10
2023-02-23T18:22:38.279Z,13.00
2023-02-23T18:25:30.203Z,13.00
2023-02-23T18:28:19.084Z,13.00
2023-02-23T18:31:06.623Z,12.90
2023-02-23T18:33:54.141Z,12.90
2023-02-23T18:36:42.841Z,13.00
2023-02-23T18:39:34.134Z,13.00
2023-02-23T18:42:22.331Z,13.00
2023-02-23T18:45:09.860Z,13.00
2023-02-23T18:47:57.549Z,13.00
2023-02-23T18:50:45.019Z,13.00
2023-02-23T18:53:37.433Z,13.00
2023-02-23T18:56:30.149Z,13.00
2023-02-23T18:59:17.504Z,13.00
2023-02-23T19:02:05.096Z,13.10
2023-02-23T19:04:52.426Z,13.00
2023-02-23T19:07:41.106Z,12.90
2023-02-23T19:10:30.197Z,12.80
2023-02-23T19:13:19.318Z,12.80
2023-02-23T19:16:09.619Z,12.80
2023-02-23T19:18:56.790Z,12.70
2023-02-23T19:21:44.164Z,12.80
2023-02-23T19:24:31.682Z,12.80
2023-02-23T19:27:19.372Z,12.80
2023-02-23T19:30:09.005Z,12.90
2023-02-23T19:32:58.559Z,12.90
2023-02-23T19:35:45.742Z,12.90
2023-02-23T19:38:33.409Z,12.90
2023-02-23T19:41:22.400Z,12.80
2023-02-23T19:44:10.681Z,12.80
2023-02-23T19:47:01.326Z,12.80
2023-02-23T19:49:48.815Z,12.80
2023-02-23T19:52:37.900Z,12.70
2023-02-23T19:55:25.642Z,12.60
2023-02-23T19:58:14.026Z,12.60
2023-02-23T20:01:10.205Z,12.60
2023-02-23T20:04:01.512Z,12.50
2023-02-23T20:06:48.756Z,12.50
2023-02-23T20:09:35.959Z,12.60
2023-02-23T20:12:23.621Z,12.60
2023-02-23T20:15:13.203Z,12.60
2023-02-23T20:18:00.417Z,12.60
2023-02-23T20:20:47.673Z,12.50
2023-02-23T20:23:35.780Z,12.50
2023-02-23T20:26:29.205Z,12.60
2023-02-23T20:29:19.052Z,12.40
2023-02-23T20:32:07.040Z,12.20
2023-02-23T20:34:54.975Z,12.10
2023-02-23T20:37:42.884Z,11.90
2023-02-23T20:40:30.445Z,11.90
2023-02-23T20:43:18.020Z,11.90
2023-02-23T20:46:05.983Z,11.90
2023-02-23T20:48:53.386Z,11.90
2023-02-23T20:51:43.122Z,11.90
2023-02-23T20:54:30.705Z,11.90
2023-02-23T20:57:17.848Z,12.10
2023-02-23T21:00:12.409Z,12.20
2023-02-23T21:03:04.967Z,12.20
2023-02-23T21:05:52.565Z,12.30
2023-02-23T21:08:42.172Z,12.30
2023-02-23T21:11:32.522Z,12.20
2023-02-23T21:14:20.635Z,12.20
2023-02-23T21:17:08.797Z,12.10
2023-02-23T21:19:57.554Z,12.10
2023-02-23T21:22:44.821Z,12.10
2023-02-23T21:25:32.793Z,12.10
2023-02-23T21:28:22.162Z,12.20
2023-02-23T21:31:10.909Z,12.20
2023-02-23T21:33:58.064Z,12.20
2023-02-23T21:36:46.267Z,12.20
2023-02-23T21:39:33.896Z,12.10
2023-02-23T21:42:23.668Z,12.00
2023-02-23T21:45:13.812Z,12.00
2023-02-23T21:48:00.954Z,12.10
2023-02-23T21:50:48.656Z,12.10
2023-02-23T21:53:37.608Z,11.80
2023-02-23T21:56:26.444Z,11.60
2023-02-23T21:59:13.571Z,11.40
2023-02-23T22:02:00.931Z,11.40
2023-02-23T22:04:50.322Z,11.50
2023-02-23T22:07:37.654Z,11.70
2023-02-23T22:10:27.031Z,11.80
2023-02-23T22:13:14.588Z,11.80
2023-02-23T22:16:01.865Z,11.80
2023-02-23T22:18:50.522Z,11.90
2023-02-23T22:21:40.036Z,11.90
2023-02-23T22:24:27.241Z,12.00
2023-02-23T22:27:16.366Z,11.90
2023-02-23T22:30:05.173Z,11.90
2023-02-23T22:32:52.738Z,11.90
2023-02-23T22:35:42.910Z,11.80
2023-02-23T22:38:30.788Z,11.80
2023-02-23T22:41:18.036Z,11.70
2023-02-23T22:44:07.303Z,11.70
2023-02-23T22:46:54.876Z,11.60
2023-02-23T22:49:42.377Z,11.60
2023-02-23T22:52:30.031Z,11.70
2023-02-23T22:55:19.368Z,11.70
2023-02-23T22:58:08.297Z,11.70
2023-02-23T23:01:01.550Z,11.80
2023-02-23T23:03:49.039Z,11.80
2023-02-23T23:06:41.409Z,11.90
2023-02-23T23:09:29.103Z,11.80
2023-02-23T23:12:17.978Z,11.80
2023-02-23T23:15:07.219Z,11.80
2023-02-23T23:17:54.410Z,11.80
2023-02-23T23:20:43.956Z,11.80
2023-02-23T23:23:33.080Z,11.70
2023-02-23T23:26:21.861Z,11.60
2023-02-23T23:29:12.058Z,11.50
2023-02-23T23:32:01.084Z,11.50
2023-02-23T23:34:50.045Z,11.50
2023-02-23T23:37:39.793Z,11.40
2023-02-23T23:40:27.225Z,11.40
2023-02-23T23:43:14.821Z,11.40
2023-02-23T23:46:08.612Z,11.40
2023-02-23T23:49:02.231Z,11.50
2023-02-23T23:51:51.631Z,11.50
2023-02-23T23:54:39.467Z,11.50
2023-02-23T23:57:26.717Z,11.40
